PDT,Max TemperatureF,Mean TemperatureF,Min TemperatureF,Max Dew PointF,MeanDew PointF,Min DewpointF,Max Humidity, Mean Humidity, Min Humidity, Max Sea Level PressureIn, Mean Sea Level PressureIn, Min Sea Level PressureIn, Max VisibilityMiles, Mean VisibilityMiles, Min VisibilityMiles, Max Wind SpeedMPH, Mean Wind SpeedMPH, Max Gust SpeedMPH,PrecipitationIn, CloudCover, Events, WindDirDegrees
2012-10-1,88,71,54,63,59,51,100,66,32,29.93,29.87,29.82,10,9,6,14,3,,0.00,0,,243
2012-10-2,82,70,57,64,61,56,100,77,54,29.86,29.82,29.79,10,9,5,10,4,,0.00,0,,240
2012-10-3,71,65,58,63,59,55,100,87,73,30.03,29.93,29.85,10,5,0,46,2,,0.01,4,Fog,236
2012-10-4,70,62,54,59,57,53,93,77,61,30.12,30.06,30.02,10,10,8,18,4,23,0.00,4,,182
2012-10-5,77,64,50,62,57,50,96,73,49,30.05,29.99,29.91,10,10,6,14,5,17,0.00,1,,161
2012-10-6,79,67,55,63,60,53,93,77,60,29.96,29.90,29.82,10,10,9,12,4,16,0.00,0,,132
2012-10-7,76,65,54,61,57,52,100,77,53,29.93,29.89,29.86,10,10,9,10,3,,0.00,0,,182
2012-10-8,80,67,53,61,53,47,93,65,36,29.97,29.93,29.90,10,10,10,14,4,16,0.00,0,,211
2012-10-9,73,62,51,60,54,46,86,72,57,29.98,29.95,29.92,10,10,9,15,4,67,0.00,2,,209
2012-10-10,71,61,50,59,53,49,96,77,57,29.98,29.94,29.91,10,10,10,10,4,14,0.00,3,,254
2012-10-11,73,61,48,55,51,47,96,69,41,29.95,29.90,29.88,10,10,10,15,4,22,0.00,3,,221
2012-10-12,71,61,50,57,51,46,86,70,53,30.14,30.07,29.97,10,10,10,21,6,140,0.00,1,,293
2012-10-13,71,60,49,58,51,46,93,73,53,30.19,30.12,30.04,10,10,10,10,2,13,0.00,0,,208
2012-10-14,81,65,48,62,54,47,93,65,36,30.06,30.00,29.93,10,10,9,12,3,,0.00,0,,181
2012-10-15,80,65,50,62,57,49,100,74,47,29.93,29.89,29.83,10,10,9,8,2,10,0.00,0,,156
2012-10-16,82,67,51,63,55,48,96,65,34,29.86,29.79,29.72,10,10,8,9,3,10,0.00,0,,156
2012-10-17,89,72,55,64,56,53,97,63,29,29.81,29.76,29.71,10,10,6,10,2,13,0.00,0,,174
2012-10-18,78,67,56,65,60,49,93,75,56,30.04,29.97,29.81,10,10,10,17,6,24,0.00,2,,107
2012-10-19,73,65,56,63,61,56,100,87,73,30.01,29.94,29.86,10,10,9,13,5,16,0.00,4,,117
2012-10-20,71,66,61,63,61,59,100,87,73,29.90,29.86,29.83,10,9,5,24,4,95,0.01,8,Rain,160
2012-10-21,71,64,56,59,57,54,100,83,66,29.91,29.87,29.85,10,10,10,10,3,13,0.00,4,,193
2012-10-22,66,58,50,56,54,48,100,78,56,30.00,29.95,29.88,10,9,3,12,4,15,0.03,7,Rain,260
2012-10-23,73,59,44,49,45,41,93,62,31,29.99,29.95,29.90,10,10,10,22,8,29,0.00,0,,246
2012-10-24,78,63,48,46,40,31,74,47,19,30.10,30.03,29.96,10,10,10,46,9,59,0.00,0,,340
2012-10-25,85,67,48,53,45,40,71,47,23,30.11,30.04,29.95,10,10,10,22,7,26,0.00,0,,291
2012-10-26,79,64,49,47,42,37,77,51,24,30.05,29.99,29.94,10,10,10,12,2,14,0.00,0,,260
2012-10-27,82,64,45,48,39,32,77,47,17,29.93,29.88,29.82,10,10,10,10,2,13,0.00,0,,243
2012-10-28,81,65,49,58,42,30,77,47,17,29.99,29.93,29.88,10,10,10,8,2,,0.00,0,,212
2012-10-29,73,60,47,58,52,43,100,73,46,30.09,30.03,30.00,10,5,0,10,3,53,0.00,4,Fog,224
2012-10-30,66,57,48,56,54,49,100,84,68,30.08,30.03,29.97,10,4,0,10,3,13,0.00,3,Fog,333
2012-10-31,66,58,49,55,52,46,96,82,67,30.06,30.01,29.98,10,9,7,14,4,17,0.00,4,,335